Time;durP1;ratioP1;P1;durP2;ratioP2;P2;SDS_P1;SDS_P2;PMS_P1;PMS_P2;Temp;Humidity;BMP_temperature;BMP_pressure;BME280_temperature;BME280_humidity;BME280_pressure;Samples;Min_cycle;Max_cycle;Signal;HPM_P1;HPM_P2
2022/11/09 00:00:51;;;;;;;1.10;1.10;;;;;;;9.54;77.45;95236.53;4366678;32;20200;-62
2022/11/09 00:03:18;;;;;;;0.57;0.57;;;;;;;9.59;76.72;95229.28;4334574;32;20188;-62
2022/11/09 00:05:55;;;;;;;0.80;0.80;;;;;;;9.67;76.47;95235.78;4357573;32;20199;-62
2022/11/09 00:08:23;;;;;;;0.77;0.77;;;;;;;9.52;76.81;95220.13;4347090;32;20222;-62
2022/11/09 00:10:52;;;;;;;1.20;0.57;;;;;;;9.14;77.70;95228.09;4352323;32;20284;-62
2022/11/09 00:13:19;;;;;;;0.77;0.77;;;;;;;9.14;78.21;95222.81;4384191;32;20273;-62
2022/11/09 00:15:46;;;;;;;0.50;0.50;;;;;;;9.29;77.55;95224.44;4369697;32;20299;-62
2022/11/09 00:18:14;;;;;;;0.73;0.73;;;;;;;9.21;77.89;95228.50;4367465;32;20293;-62
2022/11/09 00:20:40;;;;;;;3.70;0.60;;;;;;;9.22;77.92;95238.03;4359745;32;20180;-62
2022/11/09 00:23:05;;;;;;;0.60;0.60;;;;;;;9.41;77.36;95239.88;4388517;32;20197;-62
2022/11/09 00:25:31;;;;;;;0.97;0.80;;;;;;;9.38;77.05;95238.59;4374756;32;20331;-62
2022/11/09 00:27:57;;;;;;;0.77;0.77;;;;;;;9.29;77.25;95229.75;4372797;32;20220;-62
2022/11/09 00:30:23;;;;;;;0.73;0.63;;;;;;;9.36;77.15;95229.34;4361427;32;20280;-62
2022/11/09 00:32:51;;;;;;;0.70;0.70;;;;;;;9.07;77.21;95221.59;4363829;32;20302;-63
2022/11/09 00:35:17;;;;;;;0.70;0.70;;;;;;;8.80;78.16;95227.47;4378149;32;20291;-62
2022/11/09 00:37:44;;;;;;;0.30;0.30;;;;;;;8.76;78.80;95221.19;4377457;32;20204;-62
2022/11/09 00:40:12;;;;;;;0.63;0.60;;;;;;;8.97;78.14;95225.13;4365358;32;20185;-62
2022/11/09 00:42:39;;;;;;;0.80;0.77;;;;;;;9.21;77.23;95235.66;4380303;32;20367;-62
2022/11/09 00:45:06;;;;;;;2.27;1.07;;;;;;;9.39;76.37;95220.84;4385196;32;20284;-62
2022/11/09 00:47:31;;;;;;;0.83;0.83;;;;;;;9.30;76.64;95226.81;4361559;32;20324;-62
2022/11/09 00:49:57;;;;;;;0.57;0.57;;;;;;;8.96;77.39;95227.00;4340876;32;20318;-62
2022/11/09 00:52:23;;;;;;;1.10;0.70;;;;;;;8.84;77.91;95218.69;4350985;32;20180;-62
2022/11/09 00:54:49;;;;;;;0.50;0.50;;;;;;;8.88;77.83;95219.72;4375938;32;20319;-63
2022/11/09 00:57:16;;;;;;;0.30;0.30;;;;;;;9.05;77.34;95218.44;4370522;32;20193;-62
2022/11/09 00:59:44;;;;;;;0.60;0.53;;;;;;;9.00;77.12;95221.13;4392486;32;20358;-62
2022/11/09 01:02:10;;;;;;;0.27;0.27;;;;;;;9.10;76.48;95216.50;4351196;32;20189;-62
2022/11/09 01:04:35;;;;;;;1.13;1.03;;;;;;;8.99;76.71;95219.56;4385739;32;20290;-62
2022/11/09 01:07:00;;;;;;;0.40;0.40;;;;;;;8.82;77.14;95214.75;4369304;32;20285;-63
2022/11/09 01:09:32;;;;;;;0.20;0.20;;;;;;;8.76;77.86;95211.38;4370979;32;20341;-62
2022/11/09 01:11:59;;;;;;;0.20;0.20;;;;;;;8.91;77.12;95213.06;4371303;32;20248;-63
2022/11/09 01:14:25;;;;;;;0.27;0.27;;;;;;;8.90;76.95;95216.78;4343107;32;20311;-63
2022/11/09 01:16:53;;;;;;;0.43;0.43;;;;;;;8.87;76.70;95212.06;4367359;32;20303;-62
2022/11/09 01:19:19;;;;;;;0.40;0.40;;;;;;;8.88;76.58;95213.63;4363666;32;20285;-62
2022/11/09 01:21:46;;;;;;;0.50;0.50;;;;;;;8.96;76.78;95212.97;4366871;32;20335;-62
2022/11/09 01:24:14;;;;;;;0.13;0.13;;;;;;;9.05;76.40;95213.13;4354269;32;20223;-62
2022/11/09 01:26:41;;;;;;;0.40;0.40;;;;;;;8.97;76.32;95211.91;4373512;32;20354;-62
2022/11/09 01:29:09;;;;;;;0.43;0.43;;;;;;;8.78;76.51;95214.53;4370809;32;20307;-63
2022/11/09 01:31:34;;;;;;;0.30;0.30;;;;;;;8.98;76.26;95218.00;4369947;32;20305;-63
2022/11/09 01:34:02;;;;;;;0.60;0.60;;;;;;;8.85;76.09;95215.00;4384807;32;20288;-63
2022/11/09 01:36:28;;;;;;;1.07;0.80;;;;;;;8.88;75.99;95214.44;4368441;32;20185;-63
2022/11/09 01:38:57;;;;;;;0.40;0.40;;;;;;;9.12;75.21;95208.28;4368324;32;20277;-62
2022/11/09 01:41:26;;;;;;;0.20;0.20;;;;;;;8.87;75.73;95212.84;4367240;32;20207;-62
2022/11/09 01:44:17;;;;;;;0.30;0.30;;;;;;;9.08;75.01;95200.13;4375823;32;20276;-63
2022/11/09 01:46:58;;;;;;;0.37;0.30;;;;;;;8.91;74.90;95205.94;4384822;32;20327;-63
2022/11/09 01:49:58;;;;;;;0.43;0.33;;;;;;;8.94;75.18;95202.69;4377516;32;20309;-62
2022/11/09 01:52:42;;;;;;;0.40;0.40;;;;;;;8.92;75.50;95210.16;4339150;32;20352;-63
2022/11/09 01:55:15;;;;;;;0.47;0.47;;;;;;;8.99;75.14;95204.47;4351003;32;20290;-63
2022/11/09 01:58:04;;;;;;;0.47;0.47;;;;;;;8.66;76.15;95200.97;4365382;32;20284;-63
2022/11/09 02:00:36;;;;;;;0.13;0.13;;;;;;;8.79;76.29;95210.03;4369261;32;20314;-62
2022/11/09 02:03:11;;;;;;;0.43;0.43;;;;;;;8.84;75.56;95208.13;4378519;32;20361;-63
2022/11/09 02:05:40;;;;;;;0.40;0.40;;;;;;;8.99;75.31;95201.03;4359144;32;20285;-63
2022/11/09 02:08:27;;;;;;;0.53;0.53;;;;;;;9.04;75.00;95201.78;4386958;32;20287;-63
2022/11/09 02:11:11;;;;;;;0.10;0.10;;;;;;;8.90;75.11;95207.00;4363078;32;20276;-63
2022/11/09 02:13:43;;;;;;;1.53;0.70;;;;;;;8.90;75.19;95198.28;4340483;32;20295;-63
2022/11/09 02:16:14;;;;;;;0.30;0.30;;;;;;;8.71;75.26;95198.25;4365546;32;20277;-63
2022/11/09 02:19:03;;;;;;;0.30;0.30;;;;;;;8.61;76.03;95199.16;4362167;32;20281;-62
2022/11/09 02:21:41;;;;;;;0.30;0.30;;;;;;;8.47;76.47;95197.50;4363769;32;20388;-62
2022/11/09 02:24:07;;;;;;;0.50;0.50;;;;;;;8.69;75.85;95191.69;4367286;32;20284;-62
2022/11/09 02:26:50;;;;;;;0.03;0.03;;;;;;;8.66;75.77;95192.25;4374818;32;20320;-63
2022/11/09 02:29:31;;;;;;;0.20;0.03;;;;;;;8.51;76.01;95199.28;4380518;32;20290;-62
2022/11/09 02:32:03;;;;;;;0.10;0.10;;;;;;;8.46;76.06;95195.91;4376302;32;20429;-62
2022/11/09 02:34:32;;;;;;;0.40;0.40;;;;;;;8.57;76.26;95197.34;4349774;32;20280;-62
2022/11/09 02:36:58;;;;;;;0.30;0.30;;;;;;;8.53;76.66;95196.34;4378349;32;20289;-62
2022/11/09 02:39:27;;;;;;;0.10;0.10;;;;;;;8.64;75.75;95192.53;4386532;32;20280;-62
2022/11/09 02:42:15;;;;;;;0.10;0.10;;;;;;;8.73;75.12;95190.03;4359645;32;20355;-63
2022/11/09 02:44:46;;;;;;;1.67;0.43;;;;;;;8.69;75.30;95186.38;4369389;32;20289;-62
2022/11/09 02:47:13;;;;;;;0.20;0.20;;;;;;;8.54;75.59;95192.63;4372427;32;20287;-62
2022/11/09 02:49:41;;;;;;;0.30;0.30;;;;;;;8.45;76.20;95194.34;4366233;32;20312;-62
2022/11/09 02:52:12;;;;;;;0.10;0.10;;;;;;;8.36;76.06;95191.53;4361610;32;20300;-62
2022/11/09 02:54:38;;;;;;;0.10;0.10;;;;;;;8.66;75.34;95184.31;4364877;32;20309;-62
2022/11/09 02:57:25;;;;;;;0.63;0.50;;;;;;;8.69;74.91;95194.31;4365780;32;20316;-62
2022/11/09 02:59:50;;;;;;;0.10;0.10;;;;;;;8.71;74.93;95198.25;4347084;32;20300;-62
2022/11/09 03:02:17;;;;;;;0.50;0.43;;;;;;;8.77;74.65;95196.31;4383035;32;20295;-62
2022/11/09 03:04:42;;;;;;;0.63;0.43;;;;;;;8.71;74.87;95203.53;4368045;32;20227;-62
2022/11/09 03:07:08;;;;;;;0.50;0.50;;;;;;;8.66;74.92;95200.97;4359599;32;20292;-62
2022/11/09 03:09:35;;;;;;;4.70;0.50;;;;;;;8.67;74.72;95194.59;4381077;32;20204;-63
2022/11/09 03:14:50;;;;;;;0.10;0.10;;;;;;;8.89;73.21;95194.84;4377673;32;20397;-63
2022/11/09 03:17:18;;;;;;;0.10;0.10;;;;;;;8.81;74.07;95192.81;4371570;32;20307;-62
2022/11/09 03:19:45;;;;;;;0.27;0.27;;;;;;;8.73;73.98;95185.50;4380355;32;20287;-63
2022/11/09 03:22:10;;;;;;;0.40;0.40;;;;;;;8.73;74.24;95180.22;4371544;32;20293;-63
2022/11/09 03:24:39;;;;;;;0.40;0.40;;;;;;;8.79;73.21;95178.31;4374162;32;20338;-62
2022/11/09 03:27:05;;;;;;;0.10;0.10;;;;;;;8.73;72.78;95190.78;4342506;32;20188;-63
2022/11/09 03:29:32;;;;;;;0.20;0.20;;;;;;;8.92;72.13;95199.56;4367098;32;20316;-62
2022/11/09 03:32:08;;;;;;;0.13;0.13;;;;;;;8.95;72.29;95201.63;4381104;32;20281;-63
2022/11/09 03:34:37;;;;;;;0.23;0.23;;;;;;;8.95;72.55;95192.88;4368132;32;20295;-62
2022/11/09 03:37:04;;;;;;;0.20;0.20;;;;;;;8.84;73.21;95194.91;4364985;32;20277;-63
2022/11/09 03:39:30;;;;;;;0.13;0.13;;;;;;;8.92;72.49;95191.63;4356801;32;20299;-62
2022/11/09 03:41:57;;;;;;;0.37;0.37;;;;;;;8.78;73.33;95190.75;4367181;32;27197;-62
2022/11/09 03:44:24;;;;;;;0.20;0.20;;;;;;;8.72;73.28;95194.53;4361770;32;20280;-63
2022/11/09 03:46:50;;;;;;;0.20;0.20;;;;;;;8.83;72.93;95195.97;4367808;32;20339;-63
2022/11/09 03:49:17;;;;;;;0.10;0.10;;;;;;;8.86;72.30;95190.13;4358537;32;20302;-63
2022/11/09 03:51:45;;;;;;;0.20;0.20;;;;;;;8.79;72.90;95194.97;4372153;32;20308;-63
2022/11/09 03:54:12;;;;;;;0.20;0.20;;;;;;;8.79;73.96;95192.31;4350877;32;20276;-63
2022/11/09 03:56:38;;;;;;;0.30;0.30;;;;;;;8.63;73.49;95190.94;4359628;32;20303;-63
2022/11/09 03:59:04;;;;;;;0.20;0.20;;;;;;;8.85;72.75;95191.19;4365887;32;20280;-63
2022/11/09 04:01:31;;;;;;;0.30;0.30;;;;;;;8.84;72.94;95194.13;4344767;32;20203;-63
2022/11/09 04:03:58;;;;;;;0.50;0.50;;;;;;;8.80;72.26;95188.59;4373845;32;20403;-63
2022/11/09 04:06:24;;;;;;;0.50;0.50;;;;;;;8.85;72.07;95183.25;4368409;32;20297;-62
2022/11/09 04:08:52;;;;;;;0.00;0.00;;;;;;;8.97;71.65;95188.09;4366518;32;20346;-63
2022/11/09 04:11:19;;;;;;;1.57;0.50;;;;;;;8.96;71.74;95189.16;4358169;32;20350;-63
2022/11/09 04:13:46;;;;;;;0.17;0.17;;;;;;;8.88;71.70;95181.91;4355399;32;20285;-62
2022/11/09 04:16:13;;;;;;;0.40;0.40;;;;;;;8.90;71.75;95180.53;4349548;32;20300;-63
2022/11/09 04:18:40;;;;;;;0.40;0.40;;;;;;;8.85;72.45;95177.97;4354282;32;20274;-63
2022/11/09 04:21:05;;;;;;;0.20;0.20;;;;;;;8.95;71.12;95183.09;4388820;32;20281;-63
2022/11/09 04:23:32;;;;;;;0.20;0.20;;;;;;;8.93;71.46;95184.47;4367197;32;20318;-62
2022/11/09 04:25:58;;;;;;;0.20;0.20;;;;;;;8.95;71.63;95183.09;4385810;32;20192;-62
2022/11/09 04:28:25;;;;;;;0.10;0.10;;;;;;;8.79;72.04;95181.72;4383241;32;20288;-63
2022/11/09 04:30:53;;;;;;;0.20;0.20;;;;;;;8.81;71.90;95178.81;4371754;32;20350;-62
2022/11/09 04:33:18;;;;;;;0.20;0.20;;;;;;;8.88;71.07;95181.91;4379558;32;20302;-63
2022/11/09 04:35:44;;;;;;;0.10;0.10;;;;;;;8.80;71.82;95185.97;4373526;32;20288;-63
2022/11/09 04:38:21;;;;;;;0.30;0.30;;;;;;;8.79;72.55;95179.09;4381673;32;20225;-63
2022/11/09 04:40:47;;;;;;;0.10;0.10;;;;;;;8.91;71.51;95181.34;4353870;32;20199;-63
2022/11/09 04:43:14;;;;;;;0.47;0.47;;;;;;;8.96;71.28;95186.53;4371741;32;20295;-62
2022/11/09 04:45:43;;;;;;;0.93;0.50;;;;;;;8.85;72.23;95185.91;4351267;32;20199;-62
2022/11/09 04:48:11;;;;;;;0.53;0.40;;;;;;;8.89;72.50;95194.84;4379380;32;20304;-62
2022/11/09 04:50:36;;;;;;;0.30;0.30;;;;;;;8.87;71.50;95202.28;4372068;32;20314;-62
2022/11/09 04:53:10;;;;;;;0.00;0.00;;;;;;;8.90;71.28;95192.97;4329476;32;20280;-63
2022/11/09 04:55:37;;;;;;;0.77;0.30;;;;;;;8.95;71.22;95183.09;4365938;32;20285;-63
2022/11/09 04:58:07;;;;;;;0.20;0.20;;;;;;;8.93;71.41;95185.25;4374792;32;20365;-62
2022/11/09 05:00:33;;;;;;;0.10;0.10;;;;;;;8.80;71.20;95191.25;4387927;32;20280;-62
2022/11/09 05:03:10;;;;;;;0.57;0.33;;;;;;;8.87;71.57;95196.97;4377642;32;20295;-63
2022/11/09 05:05:37;;;;;;;0.10;0.10;;;;;;;9.01;70.98;95190.97;4344761;32;20311;-62
2022/11/09 05:08:07;;;;;;;0.40;0.40;;;;;;;8.91;71.20;95198.00;4347966;32;20281;-63
2022/11/09 05:10:59;;;;;;;0.57;0.57;;;;;;;9.09;70.76;95198.28;4367241;32;20288;-63
2022/11/09 05:13:26;;;;;;;0.13;0.13;;;;;;;8.83;70.91;95198.63;4366791;32;20291;-63
2022/11/09 05:15:53;;;;;;;0.60;0.60;;;;;;;8.67;71.97;95202.53;4372558;32;20272;-64
2022/11/09 05:18:18;;;;;;;0.30;0.30;;;;;;;8.64;72.13;95197.03;4362561;32;20296;-63
2022/11/09 05:20:44;;;;;;;0.43;0.37;;;;;;;8.52;72.49;95194.78;4394612;32;20364;-63
2022/11/09 05:25:56;;;;;;;0.30;0.30;;;;;;;8.50;72.87;95207.50;4375564;32;20295;-63
2022/11/09 05:28:27;;;;;;;0.20;0.20;;;;;;;8.60;72.84;95207.37;4367514;32;20276;-63
2022/11/09 05:30:52;;;;;;;0.20;0.20;;;;;;;8.59;72.62;95208.44;4364530;32;20292;-63
2022/11/09 05:33:20;;;;;;;0.10;0.10;;;;;;;8.63;72.48;95201.53;4364907;32;20272;-63
2022/11/09 05:35:47;;;;;;;0.40;0.40;;;;;;;8.48;72.86;95205.13;4367554;32;20189;-63
2022/11/09 05:38:13;;;;;;;0.10;0.10;;;;;;;8.43;72.80;95199.13;4388061;32;20288;-63
2022/11/09 05:40:40;;;;;;;0.20;0.20;;;;;;;8.49;73.41;95198.00;4363330;32;20280;-62
2022/11/09 05:43:06;;;;;;;0.40;0.40;;;;;;;8.62;73.21;95197.31;4356873;32;20273;-63
2022/11/09 05:45:32;;;;;;;0.30;0.30;;;;;;;8.72;72.73;95189.25;4382175;32;20298;-63
2022/11/09 05:48:02;;;;;;;11.17;0.63;;;;;;;8.73;73.06;95196.09;4362537;32;20212;-63
2022/11/09 05:50:29;;;;;;;0.43;0.40;;;;;;;8.78;72.35;95193.38;4348065;32;20342;-63
2022/11/09 05:52:59;;;;;;;0.00;0.00;;;;;;;8.83;71.88;95195.97;4363260;32;20308;-63
2022/11/09 05:55:27;;;;;;;0.30;0.30;;;;;;;8.91;71.33;95187.41;4353709;32;20285;-63
2022/11/09 05:57:54;;;;;;;0.10;0.10;;;;;;;9.00;70.93;95194.69;4341444;32;20338;-63
2022/11/09 06:00:21;;;;;;;0.30;0.30;;;;;;;9.02;70.73;95192.53;4370502;32;20284;-63
2022/11/09 06:02:48;;;;;;;1.07;0.33;;;;;;;9.05;70.43;95199.91;4363808;32;20290;-64
2022/11/09 06:05:15;;;;;;;0.10;0.10;;;;;;;9.05;70.72;95207.84;4374685;32;20343;-63
2022/11/09 06:07:42;;;;;;;0.27;0.27;;;;;;;9.00;70.45;95202.62;4380711;32;20295;-64
2022/11/09 06:10:08;;;;;;;0.03;0.03;;;;;;;9.08;70.75;95207.28;4386520;32;20268;-63
2022/11/09 06:12:35;;;;;;;0.80;0.50;;;;;;;9.00;71.13;95210.56;4389305;32;20284;-63
2022/11/09 06:15:02;;;;;;;0.40;0.37;;;;;;;8.77;71.79;95215.63;4374610;32;20374;-63
2022/11/09 06:17:27;;;;;;;0.53;0.43;;;;;;;8.87;71.74;95212.06;4378248;32;20360;-64
2022/11/09 06:19:53;;;;;;;0.00;0.00;;;;;;;9.01;71.23;95220.06;4372936;32;20276;-63
2022/11/09 06:22:19;;;;;;;0.00;0.00;;;;;;;9.00;70.99;95223.78;4386964;32;20193;-64
2022/11/09 06:24:46;;;;;;;0.47;0.43;;;;;;;9.11;70.82;95227.88;4375862;32;20251;-64
2022/11/09 06:27:13;;;;;;;0.30;0.30;;;;;;;9.16;70.55;95233.09;4347997;32;20276;-64
2022/11/09 06:29:40;;;;;;;0.23;0.23;;;;;;;9.11;70.78;95244.56;4357541;32;20303;-63
2022/11/09 06:32:06;;;;;;;0.30;0.30;;;;;;;9.11;70.61;95239.25;4375550;32;20292;-63
2022/11/09 06:34:32;;;;;;;0.27;0.27;;;;;;;8.92;72.22;95241.88;4346688;32;20336;-63
2022/11/09 06:36:59;;;;;;;0.43;0.43;;;;;;;9.19;71.33;95251.03;4342945;32;20303;-63
2022/11/09 06:39:26;;;;;;;0.53;0.50;;;;;;;9.24;70.93;95264.22;4351609;32;20326;-63
2022/11/09 06:41:51;;;;;;;0.37;0.37;;;;;;;9.19;70.36;95274.87;4354516;32;20193;-63
2022/11/09 06:44:17;;;;;;;0.27;0.27;;;;;;;9.18;71.95;95283.87;4375625;32;20358;-63
2022/11/09 06:46:46;;;;;;;0.40;0.37;;;;;;;9.22;71.50;95287.53;4380228;32;20185;-63
2022/11/09 06:49:13;;;;;;;9.23;0.47;;;;;;;9.07;71.73;95290.37;4371233;32;20215;-63
2022/11/09 06:51:38;;;;;;;0.43;0.43;;;;;;;9.17;72.41;95303.47;4378278;32;20284;-64
2022/11/09 06:54:05;;;;;;;2.57;1.07;;;;;;;9.32;72.06;95299.84;4352219;32;20281;-63
2022/11/09 06:56:30;;;;;;;0.33;0.33;;;;;;;9.20;72.71;95316.94;4369066;32;20287;-63
2022/11/09 06:58:57;;;;;;;0.50;0.50;;;;;;;9.32;72.66;95329.75;4377933;32;20199;-63
2022/11/09 07:01:27;;;;;;;2.50;0.70;;;;;;;9.43;71.67;95338.34;4321531;32;20236;-63
2022/11/09 07:03:54;;;;;;;0.37;0.33;;;;;;;9.45;69.62;95334.34;4353382;32;20199;-63
2022/11/09 07:06:21;;;;;;;0.10;0.10;;;;;;;9.63;68.64;95341.50;4376952;32;20320;-63
2022/11/09 07:08:49;;;;;;;0.40;0.37;;;;;;;9.75;69.38;95353.56;4372366;32;20189;-63
2022/11/09 07:11:18;;;;;;;0.77;0.43;;;;;;;9.77;70.22;95348.75;4373596;32;20281;-63
2022/11/09 07:13:48;;;;;;;0.10;0.10;;;;;;;9.88;69.30;95350.97;4370417;32;20279;-63
2022/11/09 07:16:19;;;;;;;0.30;0.30;;;;;;;9.82;68.69;95365.34;4367568;32;20223;-63
2022/11/09 07:18:46;;;;;;;0.47;0.47;;;;;;;9.90;68.91;95369.22;4384945;32;20292;-63
2022/11/09 07:21:13;;;;;;;1.50;0.63;;;;;;;9.78;69.41;95364.34;4372464;32;20254;-48
2022/11/09 07:23:41;;;;;;;1.63;0.77;;;;;;;10.51;89.96;95355.81;4366474;32;20185;-52
2022/11/09 07:26:10;;;;;;;0.70;0.47;;;;;;;12.19;100.00;95349.78;4348332;32;20192;-49
2022/11/09 07:28:37;;;;;;;0.73;0.73;;;;;;;12.73;96.28;95354.00;4350883;32;20196;-48
2022/11/09 07:31:04;;;;;;;0.50;0.47;;;;;;;13.09;82.90;95357.28;4360622;32;20220;-49
2022/11/09 07:33:32;;;;;;;0.73;0.50;;;;;;;13.30;72.64;95354.88;4339053;32;20258;-51
2022/11/09 07:36:00;;;;;;;0.20;0.20;;;;;;;13.80;73.19;95348.41;4354141;32;20271;-51
2022/11/09 07:38:46;;;;;;;2.47;0.33;;;;;;;14.10;73.32;95342.94;4356577;32;20201;-52
2022/11/09 07:41:13;;;;;;;0.50;0.50;;;;;;;14.39;69.80;95344.94;4370299;32;20221;-51
2022/11/09 07:43:39;;;;;;;0.43;0.43;;;;;;;14.49;67.00;95340.41;4372418;32;20189;-51
2022/11/09 07:46:05;;;;;;;0.50;0.50;;;;;;;14.62;66.06;95336.75;4362809;32;20226;-50
2022/11/09 07:48:34;;;;;;;0.40;0.40;;;;;;;14.58;65.81;95341.16;4374352;32;20203;-48
2022/11/09 07:51:06;;;;;;;1.07;0.77;;;;;;;14.55;63.93;95341.81;4375309;32;20198;-47
2022/11/09 07:53:33;;;;;;;0.40;0.40;;;;;;;14.61;63.30;95335.97;4357789;32;20209;-51
2022/11/09 07:56:03;;;;;;;0.73;0.73;;;;;;;14.66;63.43;95337.69;4353593;32;20287;-63
2022/11/09 07:58:34;;;;;;;0.60;0.60;;;;;;;14.29;58.31;95344.50;4366687;32;20199;-61
2022/11/09 08:01:09;;;;;;;0.90;0.90;;;;;;;13.24;58.63;95342.03;4369663;32;20275;-62
2022/11/09 08:03:36;;;;;;;7.83;1.07;;;;;;;12.57;60.20;95344.84;4370771;32;20195;-64
2022/11/09 08:06:02;;;;;;;0.50;0.50;;;;;;;12.18;61.49;95353.50;4369746;32;20191;-62
2022/11/09 08:08:29;;;;;;;0.20;0.20;;;;;;;11.98;63.46;95354.78;4375431;32;20200;-61
2022/11/09 08:10:57;;;;;;;0.70;0.70;;;;;;;11.71;63.50;95359.03;4339688;32;20188;-64
2022/11/09 08:13:23;;;;;;;0.93;0.60;;;;;;;11.61;64.65;95358.50;4356182;32;20181;-64
2022/11/09 08:15:49;;;;;;;0.53;0.53;;;;;;;11.43;65.48;95360.16;4316313;32;20192;-63
2022/11/09 08:18:18;;;;;;;0.67;0.67;;;;;;;11.37;66.04;95364.03;4373730;32;20185;-63
2022/11/09 08:20:45;;;;;;;0.70;0.70;;;;;;;11.34;66.28;95365.41;4367093;32;20196;-63
2022/11/09 08:23:15;;;;;;;1.30;0.60;;;;;;;11.25;66.83;95366.37;4357581;32;20240;-63
2022/11/09 08:25:42;;;;;;;0.30;0.30;;;;;;;11.31;67.46;95367.87;4368118;32;20224;-64
2022/11/09 08:28:30;;;;;;;0.97;0.90;;;;;;;11.30;65.94;95360.97;4366619;32;20189;-63
2022/11/09 08:31:00;;;;;;;0.47;0.47;;;;;;;11.39;67.86;95363.75;4350564;32;20186;-63
2022/11/09 08:33:29;;;;;;;0.53;0.53;;;;;;;11.51;66.37;95367.44;4376374;32;20221;-63
2022/11/09 08:35:56;;;;;;;0.63;0.63;;;;;;;11.65;65.58;95367.41;4367962;32;20199;-63
2022/11/09 08:38:23;;;;;;;1.33;0.80;;;;;;;11.76;64.84;95374.13;4368508;32;20260;-62
2022/11/09 08:40:58;;;;;;;0.50;0.50;;;;;;;11.93;66.44;95381.47;4380316;32;20236;-61
2022/11/09 08:43:25;;;;;;;0.40;0.40;;;;;;;12.06;66.06;95377.97;4375263;32;20189;-62
2022/11/09 08:45:52;;;;;;;0.17;0.17;;;;;;;12.20;66.03;95367.31;4334301;32;20235;-64
2022/11/09 08:48:22;;;;;;;0.30;0.30;;;;;;;12.20;64.64;95368.09;4323592;32;20196;-62
2022/11/09 08:51:00;;;;;;;0.60;0.60;;;;;;;12.40;63.34;95380.13;4255802;32;20190;-65
2022/11/09 08:53:29;;;;;;;0.40;0.40;;;;;;;12.55;63.97;95376.28;4290394;32;20278;-66
2022/11/09 08:55:56;;;;;;;0.50;0.50;;;;;;;12.65;63.92;95373.41;4314580;32;20192;-62
2022/11/09 08:58:27;;;;;;;0.87;0.70;;;;;;;12.82;62.65;95383.34;4283898;32;20210;-62
2022/11/09 09:00:54;;;;;;;0.93;0.83;;;;;;;12.99;62.63;95378.88;4366380;32;20185;-62
2022/11/09 09:03:22;;;;;;;7.43;0.70;;;;;;;13.05;61.73;95388.31;4353083;32;20185;-62
2022/11/09 09:05:50;;;;;;;0.37;0.37;;;;;;;12.87;63.68;95386.66;4323155;32;20197;-65
2022/11/09 09:08:20;;;;;;;0.63;0.63;;;;;;;12.78;63.78;95388.50;4333720;32;20215;-63
2022/11/09 09:10:46;;;;;;;0.40;0.40;;;;;;;12.78;63.09;95377.84;4343626;32;20190;-62
2022/11/09 09:13:11;;;;;;;0.30;0.30;;;;;;;12.75;64.02;95391.75;4336014;32;20215;-63
2022/11/09 09:15:45;;;;;;;0.40;0.40;;;;;;;12.74;62.49;95382.97;4353048;32;20202;-63
2022/11/09 09:18:10;;;;;;;0.70;0.70;;;;;;;12.78;61.48;95390.37;4345974;32;20231;-63
2022/11/09 09:20:37;;;;;;;0.40;0.40;;;;;;;12.89;62.48;95384.47;4327683;32;20200;-64
2022/11/09 09:23:03;;;;;;;0.57;0.57;;;;;;;12.80;61.45;95378.31;4306916;32;20192;-62
2022/11/09 09:25:30;;;;;;;0.40;0.40;;;;;;;12.92;62.54;95399.03;4361420;32;20247;-60
2022/11/09 09:28:06;;;;;;;1.10;0.90;;;;;;;12.90;61.53;95399.34;4354521;32;20208;-61
2022/11/09 09:30:32;;;;;;;1.43;1.20;;;;;;;12.95;61.78;95399.22;4362706;32;20188;-63
2022/11/09 09:32:59;;;;;;;0.70;0.60;;;;;;;13.04;61.73;95397.41;4382352;32;20263;-62
2022/11/09 09:35:29;;;;;;;0.40;0.40;;;;;;;13.05;62.95;95408.84;4349808;32;20196;-63
2022/11/09 09:37:57;;;;;;;0.97;0.60;;;;;;;13.16;60.68;95404.03;4348035;32;20189;-62
2022/11/09 09:41:04;;;;;;;0.50;0.50;;;;;;;13.20;59.98;95400.47;4350757;32;20223;-62
2022/11/09 09:43:48;;;;;;;1.23;0.93;;;;;;;13.27;60.84;95392.03;4342843;32;20224;-61
2022/11/09 09:46:38;;;;;;;6.70;0.27;;;;;;;13.43;61.18;95393.19;4300065;32;20260;-63
2022/11/09 09:49:15;;;;;;;1.03;0.37;;;;;;;13.40;60.74;95388.47;4348005;32;20197;-63
2022/11/09 09:51:53;;;;;;;0.40;0.40;;;;;;;13.44;61.76;95394.75;4365296;32;20236;-63
2022/11/09 09:54:29;;;;;;;1.30;0.47;;;;;;;13.55;61.24;95396.03;4351519;32;20196;-61
2022/11/09 09:57:14;;;;;;;0.30;0.30;;;;;;;13.64;62.78;95388.84;4339260;32;20195;-62
2022/11/09 09:59:43;;;;;;;0.20;0.20;;;;;;;13.69;62.11;95393.25;4334901;32;20284;-62
2022/11/09 10:02:20;;;;;;;0.77;0.77;;;;;;;13.65;62.79;95401.09;4326206;32;20205;-61
2022/11/09 10:04:46;;;;;;;0.33;0.33;;;;;;;13.58;63.61;95390.09;4351956;32;20217;-61
2022/11/09 10:07:39;;;;;;;9.13;0.93;;;;;;;13.53;63.18;95398.22;4312040;32;20226;-61
2022/11/09 10:10:49;;;;;;;0.40;0.40;;;;;;;13.80;62.47;95397.19;4281172;32;20238;-61
2022/11/09 10:13:54;;;;;;;1.40;0.87;;;;;;;13.74;62.61;95393.88;4354187;32;20269;-61
2022/11/09 10:16:40;;;;;;;0.40;0.40;;;;;;;13.79;62.91;95394.81;4350737;32;20275;-61
2022/11/09 10:19:31;;;;;;;0.17;0.17;;;;;;;13.81;63.48;95400.62;4296737;32;20197;-60
2022/11/09 10:22:21;;;;;;;0.50;0.50;;;;;;;13.84;62.39;95398.13;4349815;32;20184;-62
2022/11/09 10:25:02;;;;;;;0.47;0.47;;;;;;;13.90;62.15;95399.56;4359764;32;20189;-61
2022/11/09 10:27:45;;;;;;;0.10;0.10;;;;;;;13.94;62.14;95389.03;4268882;32;20362;-61
2022/11/09 10:30:20;;;;;;;0.60;0.60;;;;;;;13.91;61.88;95387.03;4348378;32;20184;-61
2022/11/09 10:32:59;;;;;;;0.20;0.20;;;;;;;13.95;61.56;95382.59;4353481;32;20177;-61
2022/11/09 10:35:50;;;;;;;0.47;0.47;;;;;;;13.97;61.58;95389.19;4351692;32;20235;-62
2022/11/09 10:38:30;;;;;;;0.50;0.47;;;;;;;14.05;61.14;95371.66;4326947;32;20197;-62
2022/11/09 10:41:19;;;;;;;0.53;0.53;;;;;;;14.09;61.16;95383.25;4362082;32;20267;-61
2022/11/09 10:43:48;;;;;;;1.27;1.17;;;;;;;14.12;61.55;95374.63;4318847;32;20189;-62
2022/11/09 10:46:14;;;;;;;1.00;0.57;;;;;;;14.19;62.13;95368.81;4316906;32;20240;-61
2022/11/09 10:48:40;;;;;;;0.27;0.27;;;;;;;14.18;61.63;95364.56;4344972;32;20189;-62
2022/11/09 10:51:39;;;;;;;0.27;0.27;;;;;;;14.09;62.83;95362.72;4364030;32;20295;-61
2022/11/09 10:54:19;;;;;;;0.30;0.30;;;;;;;13.97;63.07;95359.06;4330466;32;20263;-61
2022/11/09 10:56:49;;;;;;;0.20;0.20;;;;;;;14.03;63.16;95349.84;4332190;32;20264;-61
2022/11/09 10:59:34;;;;;;;0.20;0.20;;;;;;;14.05;62.46;95350.31;4356230;32;20185;-61
2022/11/09 11:02:00;;;;;;;0.23;0.23;;;;;;;14.01;62.56;95344.03;4335598;32;20198;-61
2022/11/09 11:04:27;;;;;;;1.07;0.33;;;;;;;14.09;64.43;95345.91;4320875;32;20186;-61
2022/11/09 11:06:54;;;;;;;0.20;0.20;;;;;;;14.08;63.29;95347.00;4350737;32;20188;-61
2022/11/09 11:09:22;;;;;;;0.83;0.50;;;;;;;14.00;65.58;95345.13;4373633;32;20277;-61
2022/11/09 11:12:15;;;;;;;0.77;0.77;;;;;;;13.97;63.36;95343.06;4313470;32;20185;-61
2022/11/09 11:14:42;;;;;;;1.13;0.90;;;;;;;14.02;63.68;95340.25;4344244;32;20192;-61
2022/11/09 11:17:26;;;;;;;1.03;0.60;;;;;;;14.08;63.78;95342.47;4344990;32;20284;-61
2022/11/09 11:19:53;;;;;;;4.23;1.83;;;;;;;14.15;63.71;95338.50;4361889;32;20221;-61
2022/11/09 11:22:23;;;;;;;0.77;0.77;;;;;;;14.20;63.33;95328.47;4354114;32;20268;-62
2022/11/09 11:25:18;;;;;;;6.83;3.07;;;;;;;14.30;62.84;95322.81;4347677;32;20209;-65
2022/11/09 11:28:17;;;;;;;3.00;1.80;;;;;;;14.35;62.94;95319.19;4372901;32;20193;-62
2022/11/09 11:30:45;;;;;;;0.30;0.30;;;;;;;14.41;62.39;95313.41;4347405;32;20220;-63
2022/11/09 11:33:18;;;;;;;0.30;0.30;;;;;;;14.43;62.30;95319.22;4358692;32;20188;-63
2022/11/09 11:36:25;;;;;;;0.37;0.37;;;;;;;14.51;62.91;95322.19;4360999;32;20188;-63
2022/11/09 11:39:45;;;;;;;0.40;0.40;;;;;;;14.56;61.93;95316.66;4363954;32;20197;-63
2022/11/09 11:42:41;;;;;;;0.37;0.37;;;;;;;14.53;61.74;95307.44;4361359;32;20181;-63
2022/11/09 11:45:14;;;;;;;1.50;0.43;;;;;;;14.66;62.52;95311.00;4360456;32;20192;-62
2022/11/09 11:48:28;;;;;;;0.67;0.57;;;;;;;14.61;63.34;95313.81;4295359;32;20220;-62
2022/11/09 11:51:24;;;;;;;0.23;0.23;;;;;;;14.60;61.93;95318.38;4318789;32;20192;-62
2022/11/09 11:54:21;;;;;;;0.30;0.30;;;;;;;14.69;62.17;95318.38;4342842;32;20182;-62
2022/11/09 11:57:26;;;;;;;0.40;0.40;;;;;;;14.80;62.67;95316.91;4346777;32;20203;-62
2022/11/09 12:00:12;;;;;;;1.10;0.70;;;;;;;14.78;62.35;95309.22;4260987;33;20225;-62
2022/11/09 12:03:05;;;;;;;2.17;1.83;;;;;;;14.77;63.12;95306.84;4349975;32;20184;-62
2022/11/09 12:05:55;;;;;;;1.87;1.73;;;;;;;14.78;62.07;95295.06;4353201;32;20200;-62